createdAt,value
2022-08-08T00:00:50.657Z,35.56
2022-08-08T00:03:32.476Z,35.78
2022-08-08T00:06:12.113Z,36.01
2022-08-08T00:09:07.693Z,36.54
2022-08-08T00:12:03.109Z,36.74
2022-08-08T00:14:57.031Z,36.76
2022-08-08T00:17:48.043Z,36.81
2022-08-08T00:20:45.067Z,36.72
2022-08-08T00:23:51.371Z,36.58
2022-08-08T00:26:34.711Z,36.57
2022-08-08T00:29:45.069Z,36.43
2022-08-08T00:32:35.206Z,36.94
2022-08-08T00:35:18.699Z,36.73
2022-08-08T00:38:17.051Z,36.20
2022-08-08T00:41:54.954Z,36.38
2022-08-08T00:44:42.157Z,36.87
2022-08-08T00:48:05.522Z,38.00
2022-08-08T00:51:02.896Z,38.58
2022-08-08T00:54:13.867Z,38.75
2022-08-08T00:57:02.176Z,39.43
2022-08-08T00:59:46.468Z,39.62
2022-08-08T01:04:01.121Z,39.74
2022-08-08T01:06:16.230Z,39.69
2022-08-08T01:09:34.930Z,39.55
2022-08-08T01:12:15.199Z,38.46
2022-08-08T01:15:17.342Z,38.13
2022-08-08T01:18:50.692Z,38.47
2022-08-08T01:22:12.195Z,38.74
2022-08-08T01:24:50.722Z,38.32
2022-08-08T01:27:50.963Z,38.26
2022-08-08T01:30:45.860Z,38.91
2022-08-08T01:33:23.772Z,38.63
2022-08-08T01:36:14.477Z,39.05
2022-08-08T01:39:24.208Z,39.19
2022-08-08T01:42:40.235Z,39.33
2022-08-08T01:45:33.614Z,39.12
2022-08-08T01:48:27.904Z,39.17
2022-08-08T01:51:00.912Z,39.40
2022-08-08T01:54:16.388Z,39.33
2022-08-08T01:56:49.273Z,39.75
2022-08-08T01:59:38.284Z,39.35
2022-08-08T02:02:39.977Z,39.93
2022-08-08T02:05:56.410Z,39.83
2022-08-08T02:08:48.180Z,39.82
2022-08-08T02:11:59.361Z,39.86
2022-08-08T02:14:55.182Z,39.76
2022-08-08T02:17:43.018Z,40.11
2022-08-08T02:21:02.717Z,39.74
2022-08-08T02:23:31.889Z,39.99
2022-08-08T02:26:22.062Z,40.11
2022-08-08T02:29:52.720Z,40.20
2022-08-08T02:32:52.400Z,39.51
2022-08-08T02:36:04.855Z,40.01
2022-08-08T02:38:40.824Z,40.11
2022-08-08T02:41:59.077Z,39.84
2022-08-08T02:44:57.426Z,39.58
2022-08-08T02:47:55.150Z,39.86
2022-08-08T02:50:53.091Z,40.39
2022-08-08T02:54:12.105Z,39.91
2022-08-08T02:57:18.499Z,39.36
2022-08-08T03:00:35.401Z,39.21
2022-08-08T03:05:01.136Z,39.48
2022-08-08T03:06:34.470Z,39.95
2022-08-08T03:09:43.984Z,39.85
2022-08-08T03:13:01.825Z,40.27
2022-08-08T03:16:06.005Z,40.60
2022-08-08T03:18:39.145Z,40.77
2022-08-08T03:21:09.612Z,40.79
2022-08-08T03:23:54.706Z,40.71
2022-08-08T03:26:33.571Z,41.07
2022-08-08T03:29:21.054Z,40.34
2022-08-08T03:32:14.925Z,40.00
2022-08-08T03:34:42.584Z,39.60
2022-08-08T03:37:58.984Z,40.25
2022-08-08T03:40:06.860Z,39.41
2022-08-08T03:42:47.905Z,40.00
2022-08-08T03:46:05.676Z,38.91
2022-08-08T03:48:21.065Z,39.28
2022-08-08T03:51:06.994Z,39.51
2022-08-08T03:53:47.344Z,39.93
2022-08-08T03:56:31.552Z,40.09
2022-08-08T03:59:03.177Z,40.35
2022-08-08T04:02:13.316Z,40.10
2022-08-08T04:04:36.745Z,40.13
2022-08-08T04:07:04.200Z,39.99
2022-08-08T04:10:00.843Z,39.74
2022-08-08T04:12:24.310Z,39.82
2022-08-08T04:14:51.774Z,40.02
2022-08-08T04:17:22.618Z,39.88
2022-08-08T04:20:08.716Z,40.07
2022-08-08T04:22:37.608Z,39.89
2022-08-08T04:25:08.581Z,39.54
2022-08-08T04:28:03.328Z,38.98
2022-08-08T04:30:39.811Z,39.36
2022-08-08T04:33:12.413Z,39.59
2022-08-08T04:35:50.768Z,39.24
2022-08-08T04:38:22.296Z,38.90
2022-08-08T04:40:54.864Z,38.46
2022-08-08T04:43:31.627Z,38.96
2022-08-08T04:46:14.635Z,39.63
2022-08-08T04:48:43.727Z,39.77
2022-08-08T04:51:17.373Z,39.81
2022-08-08T04:54:36.046Z,39.84
2022-08-08T04:56:39.760Z,39.61
2022-08-08T04:59:07.644Z,39.22
2022-08-08T05:01:48.471Z,37.86
2022-08-08T05:04:18.927Z,35.12
2022-08-08T05:06:52.028Z,33.46
2022-08-08T05:09:22.770Z,31.99
2022-08-08T05:11:57.010Z,31.37
2022-08-08T05:14:29.133Z,31.23
2022-08-08T05:17:01.709Z,30.45
2022-08-08T05:20:09.994Z,30.52
2022-08-08T05:22:30.885Z,28.49
2022-08-08T05:25:00.162Z,28.70
2022-08-08T05:27:27.583Z,28.30
2022-08-08T05:30:01.673Z,27.28
2022-08-08T05:32:42.707Z,27.07
2022-08-08T05:35:14.690Z,27.55
2022-08-08T05:37:54.523Z,28.49
2022-08-08T05:40:47.293Z,30.70
2022-08-08T05:44:02.205Z,31.46
2022-08-08T05:46:19.025Z,33.16
2022-08-08T05:48:52.074Z,33.07
2022-08-08T05:51:22.824Z,33.35
2022-08-08T05:54:26.957Z,33.69
2022-08-08T05:56:47.470Z,32.80
2022-08-08T05:59:53.610Z,32.57
2022-08-08T06:02:43.209Z,29.96
2022-08-08T06:05:34.954Z,28.12
2022-08-08T06:08:10.214Z,28.43
2022-08-08T06:10:57.842Z,28.05
2022-08-08T06:13:35.616Z,26.93
2022-08-08T06:16:06.587Z,27.15
2022-08-08T06:18:55.479Z,26.59
2022-08-08T06:21:33.255Z,24.70
2022-08-08T06:24:23.233Z,26.53
2022-08-08T06:27:09.937Z,27.11
2022-08-08T06:30:20.410Z,27.43
2022-08-08T06:33:01.139Z,27.13
2022-08-08T06:36:06.640Z,26.96
2022-08-08T06:38:28.949Z,26.47
2022-08-08T06:41:05.903Z,25.71
2022-08-08T06:43:37.925Z,26.44
2022-08-08T06:46:16.222Z,24.79
2022-08-08T06:48:47.453Z,23.63
2022-08-08T06:51:16.055Z,23.73
2022-08-08T06:53:50.425Z,24.47
2022-08-08T06:56:23.288Z,24.31
2022-08-08T06:58:53.413Z,23.88
2022-08-08T07:02:28.038Z,23.64
2022-08-08T07:04:48.027Z,24.12
2022-08-08T07:07:36.926Z,24.67
2022-08-08T07:10:08.722Z,24.41
2022-08-08T07:12:58.972Z,24.31
2022-08-08T07:16:05.212Z,23.93
2022-08-08T07:18:43.309Z,23.89
2022-08-08T07:21:20.546Z,23.88
2022-08-08T07:24:05.162Z,24.69
2022-08-08T07:26:41.596Z,24.30
2022-08-08T07:29:20.259Z,23.66
2022-08-08T07:31:59.152Z,23.36
2022-08-08T07:34:31.567Z,23.04
2022-08-08T07:37:12.028Z,23.15
2022-08-08T07:39:55.978Z,21.86
2022-08-08T07:42:33.281Z,22.68
2022-08-08T07:45:06.093Z,22.15
2022-08-08T07:47:39.062Z,21.07
2022-08-08T07:50:11.218Z,21.32
2022-08-08T07:52:44.872Z,22.17
2022-08-08T07:55:28.686Z,22.80
2022-08-08T07:58:02.357Z,23.53
2022-08-08T08:00:39.166Z,23.34
2022-08-08T08:03:28.296Z,23.47
2022-08-08T08:05:59.903Z,23.42
2022-08-08T08:09:02.738Z,22.85
2022-08-08T08:11:51.192Z,22.78
2022-08-08T08:15:02.993Z,22.62
2022-08-08T08:17:47.808Z,22.64
2022-08-08T08:20:21.746Z,22.35
2022-08-08T08:22:57.271Z,22.67
2022-08-08T08:25:40.801Z,22.34
2022-08-08T08:28:21.086Z,24.46
2022-08-08T08:30:54.110Z,23.80
2022-08-08T08:33:25.187Z,23.53
2022-08-08T08:36:19.181Z,22.52
2022-08-08T08:38:49.626Z,21.95
2022-08-08T08:41:25.047Z,22.72
2022-08-08T08:44:13.352Z,21.98
2022-08-08T08:46:45.600Z,22.00
2022-08-08T08:49:20.763Z,22.78
2022-08-08T08:51:57.156Z,23.32
2022-08-08T08:54:32.698Z,23.10
2022-08-08T08:57:15.776Z,23.21
2022-08-08T09:00:01.936Z,23.87
2022-08-08T09:02:41.171Z,24.45
2022-08-08T09:05:29.070Z,25.18
2022-08-08T09:08:13.086Z,24.86
2022-08-08T09:10:50.969Z,24.87
2022-08-08T09:13:27.824Z,24.64
2022-08-08T09:16:03.658Z,24.00
2022-08-08T09:18:35.229Z,23.64
2022-08-08T09:21:58.262Z,23.60
2022-08-08T09:23:50.983Z,23.94
2022-08-08T09:26:51.438Z,23.58
2022-08-08T09:29:24.761Z,24.12
2022-08-08T09:32:12.039Z,23.83
2022-08-08T09:34:51.274Z,23.51
2022-08-08T09:37:57.336Z,23.13
2022-08-08T09:40:20.257Z,22.56
2022-08-08T09:43:16.403Z,22.30
2022-08-08T09:46:04.071Z,22.75
2022-08-08T09:48:42.341Z,22.43
2022-08-08T09:51:10.437Z,22.37
2022-08-08T09:53:59.355Z,23.92
2022-08-08T09:56:41.006Z,23.57
2022-08-08T09:59:42.883Z,23.61
2022-08-08T10:02:12.832Z,24.41
2022-08-08T10:04:48.041Z,23.64
2022-08-08T10:07:17.014Z,23.57
2022-08-08T10:10:00.652Z,24.56
2022-08-08T10:12:53.785Z,24.82
2022-08-08T10:15:36.467Z,24.95
2022-08-08T10:18:11.608Z,24.84
2022-08-08T10:20:58.247Z,24.63
2022-08-08T10:23:57.998Z,24.23
2022-08-08T10:26:51.911Z,24.56
2022-08-08T10:29:58.632Z,25.00
2022-08-08T10:32:35.228Z,25.25
2022-08-08T10:35:11.548Z,24.77
2022-08-08T10:37:52.213Z,24.87
2022-08-08T10:40:22.714Z,25.38
2022-08-08T10:42:59.075Z,25.23
2022-08-08T10:45:29.913Z,27.43
2022-08-08T10:48:11.534Z,34.10
2022-08-08T10:50:40.131Z,37.43
2022-08-08T10:53:16.514Z,38.86
2022-08-08T10:55:46.498Z,32.98
2022-08-08T10:58:16.082Z,26.31
2022-08-08T11:00:48.732Z,23.33
2022-08-08T11:03:52.299Z,22.53
2022-08-08T11:06:12.662Z,21.42
2022-08-08T11:08:53.165Z,21.53
2022-08-08T11:11:32.431Z,21.44
2022-08-08T11:14:16.260Z,22.64
2022-08-08T11:16:47.147Z,24.66
2022-08-08T11:19:15.703Z,24.69
2022-08-08T11:21:55.447Z,23.51
2022-08-08T11:24:29.249Z,23.20
2022-08-08T11:26:58.484Z,23.25
2022-08-08T11:29:51.302Z,23.19
2022-08-08T11:32:19.994Z,22.11
2022-08-08T11:35:08.951Z,22.44
2022-08-08T11:38:36.115Z,22.84
2022-08-08T11:40:31.424Z,22.96
2022-08-08T11:43:00.679Z,23.03
2022-08-08T11:45:29.938Z,23.10
2022-08-08T11:48:09.748Z,21.89
2022-08-08T11:50:38.162Z,22.36
2022-08-08T11:53:06.647Z,21.92
2022-08-08T11:55:38.150Z,22.01
2022-08-08T11:58:14.124Z,21.70
2022-08-08T12:00:47.604Z,21.83
2022-08-08T12:03:30.897Z,22.94
2022-08-08T12:05:59.587Z,21.62
2022-08-08T12:08:35.139Z,20.84
2022-08-08T12:11:18.167Z,20.93
2022-08-08T12:14:03.573Z,19.77
2022-08-08T12:16:34.379Z,20.21
2022-08-08T12:19:13.197Z,20.17
2022-08-08T12:21:59.938Z,20.52
2022-08-08T12:24:32.088Z,21.66
2022-08-08T12:26:59.441Z,20.84
2022-08-08T12:29:40.253Z,20.29
2022-08-08T12:32:22.373Z,20.49
2022-08-08T12:35:04.805Z,21.60
2022-08-08T12:38:01.175Z,21.95
2022-08-08T12:40:54.376Z,22.10
2022-08-08T12:43:46.135Z,22.64
2022-08-08T12:46:26.522Z,22.40
2022-08-08T12:51:59.266Z,22.38
2022-08-08T12:54:33.426Z,22.96
2022-08-08T12:57:24.483Z,23.10
2022-08-08T13:00:05.117Z,23.60
2022-08-08T13:02:51.498Z,24.04
2022-08-08T13:05:26.665Z,24.57
2022-08-08T13:08:17.014Z,25.11
2022-08-08T13:10:58.565Z,25.41
2022-08-08T13:13:35.413Z,25.23
2022-08-08T13:16:26.038Z,25.79
2022-08-08T13:19:05.532Z,25.56
2022-08-08T13:21:53.548Z,25.53
2022-08-08T13:24:42.343Z,24.88
2022-08-08T13:27:20.612Z,25.03
2022-08-08T13:29:56.354Z,26.26
2022-08-08T13:32:29.326Z,27.02
2022-08-08T13:35:11.671Z,29.34
2022-08-08T13:38:06.773Z,30.17
2022-08-08T13:40:35.864Z,31.20
2022-08-08T13:43:08.814Z,33.92
2022-08-08T13:45:37.700Z,37.39
2022-08-08T13:48:12.619Z,35.78
2022-08-08T13:50:50.850Z,34.18
2022-08-08T13:53:31.461Z,32.26
2022-08-08T13:56:02.959Z,31.88
2022-08-08T13:58:31.009Z,32.65
2022-08-08T14:00:58.503Z,32.95
2022-08-08T14:03:47.064Z,33.02
2022-08-08T14:06:32.190Z,32.68
2022-08-08T14:09:25.344Z,31.33
2022-08-08T14:11:49.292Z,31.48
2022-08-08T14:14:20.956Z,31.08
2022-08-08T14:16:53.670Z,31.24
2022-08-08T14:19:57.086Z,30.91
2022-08-08T14:22:21.809Z,29.79
2022-08-08T14:25:00.449Z,30.39
2022-08-08T14:27:34.114Z,30.73
2022-08-08T14:30:17.972Z,30.87
2022-08-08T14:32:54.047Z,32.64
2022-08-08T14:35:35.039Z,33.05
2022-08-08T14:38:33.483Z,33.96
2022-08-08T14:40:59.014Z,34.83
2022-08-08T14:44:01.663Z,35.48
2022-08-08T14:46:31.195Z,36.01
2022-08-08T14:49:09.434Z,36.60
2022-08-08T14:51:53.125Z,37.21
2022-08-08T14:54:29.025Z,36.51
2022-08-08T14:56:58.120Z,36.30
2022-08-08T14:59:43.525Z,36.12
2022-08-08T15:02:15.326Z,35.91
2022-08-08T15:04:45.622Z,36.32
2022-08-08T15:07:22.872Z,36.20
2022-08-08T15:10:01.934Z,35.64
2022-08-08T15:12:31.642Z,35.88
2022-08-08T15:15:06.843Z,36.06
2022-08-08T15:17:38.387Z,36.01
2022-08-08T15:20:14.215Z,35.55
2022-08-08T15:22:44.642Z,35.44
2022-08-08T15:25:17.621Z,35.38
2022-08-08T15:28:05.249Z,35.35
2022-08-08T15:30:45.911Z,35.56
2022-08-08T15:33:35.021Z,34.95
2022-08-08T15:36:04.388Z,34.52
2022-08-08T15:38:31.802Z,34.35
2022-08-08T15:41:00.875Z,34.76
2022-08-08T15:43:35.988Z,34.82
2022-08-08T15:46:04.454Z,35.19
2022-08-08T15:48:31.914Z,35.15
2022-08-08T15:51:03.315Z,35.32
2022-08-08T15:53:48.968Z,35.78
2022-08-08T15:56:19.767Z,35.92
2022-08-08T15:58:49.309Z,35.85
2022-08-08T16:01:21.039Z,35.66
2022-08-08T16:03:51.948Z,35.57
2022-08-08T16:06:28.232Z,35.94
2022-08-08T16:13:02.213Z,36.40
2022-08-08T16:13:14.030Z,36.96
2022-08-08T16:14:36.991Z,36.80
2022-08-08T16:17:06.214Z,36.79
2022-08-08T16:19:59.549Z,36.94
2022-08-08T16:22:30.261Z,36.67
2022-08-08T16:25:09.575Z,36.34
2022-08-08T16:27:37.091Z,36.62
2022-08-08T16:30:13.562Z,36.67
2022-08-08T16:32:43.743Z,36.77
2022-08-08T16:35:18.889Z,37.08
2022-08-08T16:37:59.048Z,37.20
2022-08-08T16:40:29.086Z,37.64
2022-08-08T16:42:56.868Z,37.25
2022-08-08T16:46:37.651Z,37.57
2022-08-08T16:48:13.464Z,37.81
2022-08-08T16:50:41.001Z,37.99
2022-08-08T16:55:19.331Z,38.25
2022-08-08T16:56:00.505Z,38.11
2022-08-08T16:58:31.647Z,38.60
2022-08-08T17:01:05.662Z,38.82
2022-08-08T17:03:57.868Z,39.02
2022-08-08T17:06:36.062Z,39.18
2022-08-08T17:09:07.081Z,39.07
2022-08-08T17:11:48.582Z,39.59
2022-08-08T17:14:26.887Z,39.56
2022-08-08T17:16:58.463Z,39.92
2022-08-08T17:19:40.823Z,39.95
2022-08-08T17:22:09.961Z,40.24
2022-08-08T17:24:38.115Z,40.42
2022-08-08T17:27:07.565Z,40.80
2022-08-08T17:29:36.320Z,40.75
2022-08-08T17:32:11.133Z,41.17
2022-08-08T17:35:00.189Z,41.03
2022-08-08T17:37:27.638Z,41.04
2022-08-08T17:40:10.676Z,41.14
2022-08-08T17:42:47.239Z,41.44
2022-08-08T17:45:22.931Z,41.84
2022-08-08T17:47:51.839Z,41.89
2022-08-08T17:50:25.041Z,41.94
2022-08-08T17:53:12.251Z,42.33
2022-08-08T17:56:04.942Z,42.67
2022-08-08T17:58:27.629Z,43.33
2022-08-08T18:00:57.376Z,44.01
2022-08-08T18:03:25.005Z,43.90
2022-08-08T18:05:52.401Z,44.64
2022-08-08T18:08:37.477Z,45.52
2022-08-08T18:11:17.199Z,46.60
2022-08-08T18:13:47.894Z,47.01
2022-08-08T18:16:20.489Z,47.48
2022-08-08T18:18:52.842Z,48.04
2022-08-08T18:21:24.962Z,48.04
2022-08-08T18:24:03.662Z,48.75
2022-08-08T18:26:34.172Z,49.17
2022-08-08T18:29:02.675Z,48.83
2022-08-08T18:31:33.383Z,49.13
2022-08-08T18:34:18.767Z,49.23
2022-08-08T18:36:48.328Z,50.29
2022-08-08T18:39:28.091Z,50.23
2022-08-08T18:42:03.374Z,50.48
2022-08-08T18:44:33.139Z,50.70
2022-08-08T18:47:02.526Z,51.34
2022-08-08T18:49:41.046Z,51.56
2022-08-08T18:52:22.717Z,51.69
2022-08-08T18:55:09.468Z,52.00
2022-08-08T18:57:43.446Z,52.08
2022-08-08T19:00:22.410Z,52.21
2022-08-08T19:02:56.402Z,51.93
2022-08-08T19:05:32.130Z,51.86
2022-08-08T19:08:24.969Z,51.74
2022-08-08T19:10:57.156Z,51.88
2022-08-08T19:13:25.257Z,51.52
2022-08-08T19:16:07.277Z,51.53
2022-08-08T19:18:51.812Z,51.91
2022-08-08T19:21:30.917Z,51.90
2022-08-08T19:24:00.579Z,52.06
2022-08-08T19:26:31.001Z,52.01
2022-08-08T19:28:59.903Z,52.01
2022-08-08T19:31:31.868Z,52.43
2022-08-08T19:34:29.993Z,52.18
2022-08-08T19:36:53.271Z,52.00
2022-08-08T19:39:23.027Z,51.61
2022-08-08T19:41:52.120Z,51.23
2022-08-08T19:44:26.891Z,51.38
2022-08-08T19:47:07.003Z,51.58
2022-08-08T19:49:36.582Z,51.93
2022-08-08T19:52:07.237Z,51.17
2022-08-08T19:54:38.665Z,50.81
2022-08-08T19:57:07.522Z,51.07
2022-08-08T19:59:35.918Z,50.93
2022-08-08T20:02:05.327Z,50.36
2022-08-08T20:04:36.740Z,50.77
2022-08-08T20:08:28.450Z,51.02
2022-08-08T20:09:57.106Z,51.15
2022-08-08T20:12:32.039Z,51.19
2022-08-08T20:15:14.359Z,50.23
2022-08-08T20:17:47.664Z,49.62
2022-08-08T20:20:19.592Z,49.38
2022-08-08T20:22:53.748Z,48.65
2022-08-08T20:25:21.864Z,48.08
2022-08-08T20:27:50.152Z,46.82
2022-08-08T20:30:52.690Z,46.32
2022-08-08T20:33:18.766Z,46.54
2022-08-08T20:35:57.226Z,46.25
2022-08-08T20:38:32.737Z,46.54
2022-08-08T20:41:12.097Z,46.34
2022-08-08T20:43:49.781Z,46.23
2022-08-08T20:46:21.229Z,45.62
2022-08-08T20:48:58.154Z,45.84
2022-08-08T20:51:27.941Z,46.01
2022-08-08T20:54:04.207Z,46.08
2022-08-08T20:57:05.739Z,46.12
2022-08-08T20:59:31.200Z,45.66
2022-08-08T21:02:06.302Z,45.38
2022-08-08T21:04:39.229Z,45.85
2022-08-08T21:07:16.012Z,46.00
2022-08-08T21:09:48.492Z,45.46
2022-08-08T21:12:32.434Z,45.30
2022-08-08T21:15:07.017Z,45.88
2022-08-08T21:17:38.814Z,46.24
2022-08-08T21:20:10.686Z,45.46
2022-08-08T21:22:38.791Z,45.19
2022-08-08T21:25:10.590Z,45.52
2022-08-08T21:28:09.249Z,45.71
2022-08-08T21:30:36.349Z,46.19
2022-08-08T21:33:08.133Z,46.36
2022-08-08T21:36:17.478Z,46.24
2022-08-08T21:38:33.975Z,46.69
2022-08-08T21:41:01.826Z,46.84
2022-08-08T21:43:34.967Z,46.97
2022-08-08T21:48:08.722Z,47.25
2022-08-08T21:49:01.188Z,47.29
2022-08-08T21:54:32.649Z,47.48
2022-08-08T21:54:52.278Z,47.62
2022-08-08T21:57:11.914Z,47.23
2022-08-08T22:00:01.396Z,47.24
2022-08-08T22:02:28.720Z,48.14
2022-08-08T22:04:59.509Z,48.03
2022-08-08T22:07:39.712Z,48.87
2022-08-08T22:10:18.510Z,50.18
2022-08-08T22:13:17.372Z,50.75
2022-08-08T22:15:58.504Z,50.56
2022-08-08T22:18:30.192Z,50.68
2022-08-08T22:21:14.186Z,50.17
2022-08-08T22:23:51.066Z,50.12
2022-08-08T22:26:30.894Z,49.77
2022-08-08T22:29:56.987Z,50.25
2022-08-08T22:32:01.775Z,50.25
2022-08-08T22:34:32.683Z,50.42
2022-08-08T22:37:01.067Z,49.82
2022-08-08T22:39:39.354Z,47.87
2022-08-08T22:42:27.536Z,46.45
2022-08-08T22:45:00.839Z,46.74
2022-08-08T22:47:34.542Z,46.89
2022-08-08T22:50:20.775Z,46.41
2022-08-08T22:53:24.127Z,46.91
2022-08-08T22:55:58.589Z,47.29
2022-08-08T22:58:32.856Z,48.03
2022-08-08T23:01:30.226Z,47.81
2022-08-08T23:03:56.299Z,47.61
2022-08-08T23:06:27.577Z,46.89
2022-08-08T23:09:00.054Z,47.67
2022-08-08T23:12:28.371Z,46.85
2022-08-08T23:14:27.359Z,47.34
2022-08-08T23:16:59.652Z,46.87
2022-08-08T23:19:30.751Z,46.81
2022-08-08T23:22:06.931Z,46.00
2022-08-08T23:24:42.667Z,46.65
2022-08-08T23:27:39.095Z,47.25
2022-08-08T23:30:09.484Z,47.83
2022-08-08T23:32:41.689Z,47.88
2022-08-08T23:35:17.407Z,47.79
2022-08-08T23:38:01.055Z,47.48
2022-08-08T23:40:37.279Z,48.05
2022-08-08T23:43:12.088Z,47.77
2022-08-08T23:49:01.113Z,48.13
2022-08-08T23:49:02.238Z,48.02
2022-08-08T23:51:41.822Z,48.11
2022-08-08T23:54:42.233Z,47.27
2022-08-08T23:56:53.853Z,47.28
2022-08-08T23:59:22.523Z,47.14
